Time;durP1;ratioP1;P1;durP2;ratioP2;P2;SDS_P1;SDS_P2;PMS_P1;PMS_P2;Temp;Humidity;BMP_temperature;BMP_pressure;BME280_temperature;BME280_humidity;BME280_pressure;Samples;Min_cycle;Max_cycle;Signal;HPM_P1;HPM_P2
2023/10/22 00:00:58;;;;;;;2.40;2.17;;;12.40;99.90;;;;;;5081223;28;20549;-59
2023/10/22 00:03:26;;;;;;;4.73;2.20;;;12.40;99.90;;;;;;5087878;28;20210;-59
2023/10/22 00:05:56;;;;;;;4.33;2.20;;;12.40;99.90;;;;;;5063689;28;20215;-59
2023/10/22 00:08:24;;;;;;;2.50;2.20;;;12.40;99.90;;;;;;5088119;28;20655;-59
2023/10/22 00:10:52;;;;;;;6.03;2.20;;;12.40;99.90;;;;;;5080059;28;20215;-58
2023/10/22 00:13:20;;;;;;;5.33;2.53;;;12.30;99.90;;;;;;5084698;28;20251;-59
2023/10/22 00:15:49;;;;;;;7.30;2.17;;;12.30;99.90;;;;;;5079266;28;20227;-59
2023/10/22 00:18:18;;;;;;;6.93;2.43;;;12.30;99.90;;;;;;5089972;28;20269;-59
2023/10/22 00:20:47;;;;;;;5.70;2.03;;;12.30;99.90;;;;;;5082268;28;20280;-59
2023/10/22 00:23:15;;;;;;;8.23;2.70;;;12.40;99.90;;;;;;5081274;28;20559;-59
2023/10/22 00:25:43;;;;;;;3.63;2.20;;;12.30;99.90;;;;;;5078500;28;20605;-59
2023/10/22 00:28:12;;;;;;;6.70;2.30;;;12.30;99.90;;;;;;5087290;28;20219;-60
2023/10/22 00:30:40;;;;;;;2.77;2.20;;;12.30;99.90;;;;;;5081263;28;20220;-59
2023/10/22 00:33:08;;;;;;;4.67;2.50;;;12.30;99.90;;;;;;5086807;28;20219;-59
2023/10/22 00:35:38;;;;;;;5.90;2.40;;;12.30;99.90;;;;;;5075712;28;20627;-59
2023/10/22 00:38:06;;;;;;;5.77;2.60;;;12.30;99.90;;;;;;5066024;28;20303;-59
2023/10/22 00:40:34;;;;;;;4.57;1.97;;;12.30;99.90;;;;;;5070562;28;20216;-58
2023/10/22 00:43:06;;;;;;;6.83;2.43;;;12.30;99.90;;;;;;5082941;28;20203;-59
2023/10/22 00:45:38;;;;;;;8.23;2.50;;;12.30;99.90;;;;;;5082255;28;20298;-59
2023/10/22 00:48:07;;;;;;;4.40;2.10;;;12.30;99.90;;;;;;5088446;28;20336;-59
2023/10/22 00:50:35;;;;;;;5.07;2.10;;;12.20;99.90;;;;;;5068219;28;20218;-59
2023/10/22 00:53:05;;;;;;;3.37;2.10;;;12.30;99.90;;;;;;5086301;28;20211;-59
2023/10/22 00:55:35;;;;;;;4.20;2.10;;;12.20;99.90;;;;;;5088192;28;20537;-59
2023/10/22 00:58:04;;;;;;;4.03;2.00;;;12.30;99.90;;;;;;5083489;28;20194;-59
2023/10/22 01:00:33;;;;;;;7.23;2.00;;;12.30;99.90;;;;;;5087230;28;20234;-59
2023/10/22 01:03:01;;;;;;;4.80;2.00;;;12.30;99.90;;;;;;5082382;28;20261;-59
2023/10/22 01:05:30;;;;;;;5.63;2.10;;;12.30;99.90;;;;;;5082600;28;20222;-59
2023/10/22 01:07:59;;;;;;;4.67;2.20;;;12.30;99.90;;;;;;5084522;28;20219;-59
2023/10/22 01:10:28;;;;;;;7.47;2.00;;;12.30;99.90;;;;;;5082193;28;20180;-58
2023/10/22 01:12:56;;;;;;;2.67;2.30;;;12.20;99.90;;;;;;5073041;28;20241;-59
2023/10/22 01:15:26;;;;;;;1.90;1.80;;;12.20;99.90;;;;;;5080694;28;20784;-59
2023/10/22 01:17:54;;;;;;;2.20;2.03;;;12.20;99.90;;;;;;5083449;28;20691;-59
2023/10/22 01:20:23;;;;;;;5.27;2.03;;;12.30;99.90;;;;;;5087294;28;20268;-59
2023/10/22 01:22:51;;;;;;;4.70;2.13;;;12.30;99.90;;;;;;5063695;28;20224;-59
2023/10/22 01:25:20;;;;;;;2.00;1.80;;;12.30;99.90;;;;;;5085444;28;20198;-59
2023/10/22 01:27:49;;;;;;;2.80;2.00;;;12.20;99.90;;;;;;5084765;28;20584;-59
2023/10/22 01:30:17;;;;;;;4.23;2.00;;;12.30;99.90;;;;;;5084533;28;20227;-59
2023/10/22 01:32:46;;;;;;;3.50;2.00;;;12.30;99.90;;;;;;5078117;28;20227;-59
2023/10/22 01:35:14;;;;;;;2.30;2.10;;;12.20;99.90;;;;;;5081135;28;20272;-59
2023/10/22 01:37:43;;;;;;;7.03;2.80;;;12.30;99.90;;;;;;5074964;28;20223;-58
2023/10/22 01:40:13;;;;;;;4.70;1.90;;;12.30;99.90;;;;;;5087683;28;20884;-59
2023/10/22 01:42:43;;;;;;;6.37;2.33;;;12.20;99.90;;;;;;5086443;28;20677;-59
2023/10/22 01:45:12;;;;;;;3.60;2.20;;;12.20;99.90;;;;;;5084070;28;20640;-60
2023/10/22 01:47:40;;;;;;;6.70;2.70;;;12.20;99.90;;;;;;5089430;28;20955;-59
2023/10/22 01:50:13;;;;;;;7.87;2.43;;;12.20;99.90;;;;;;5086135;28;20220;-59
2023/10/22 01:52:41;;;;;;;4.67;2.43;;;12.20;99.90;;;;;;5087308;28;22597;-59
2023/10/22 01:55:13;;;;;;;4.57;2.20;;;12.20;99.90;;;;;;5088041;28;20568;-59
2023/10/22 01:57:42;;;;;;;7.37;2.53;;;12.20;99.90;;;;;;5087657;28;20211;-60
2023/10/22 02:00:11;;;;;;;4.40;2.30;;;12.20;99.90;;;;;;5084484;28;20547;-59
2023/10/22 02:02:40;;;;;;;6.90;2.50;;;12.20;99.90;;;;;;5085795;28;20269;-59
2023/10/22 02:05:09;;;;;;;4.50;2.73;;;12.20;99.90;;;;;;5086850;28;20242;-59
2023/10/22 02:07:38;;;;;;;4.40;2.50;;;12.20;99.90;;;;;;5086656;28;20187;-59
2023/10/22 02:10:09;;;;;;;7.87;2.50;;;12.20;99.90;;;;;;5083433;28;20265;-60
2023/10/22 02:12:37;;;;;;;3.70;2.27;;;12.20;99.90;;;;;;5085121;28;20215;-59
2023/10/22 02:15:11;;;;;;;9.17;2.40;;;12.20;99.90;;;;;;5068604;28;20608;-59
2023/10/22 02:17:39;;;;;;;3.60;2.57;;;12.20;99.90;;;;;;5081824;28;20678;-59
2023/10/22 02:20:09;;;;;;;3.20;2.20;;;12.20;99.90;;;;;;5086728;28;20223;-59
2023/10/22 02:22:38;;;;;;;5.53;3.07;;;12.10;99.90;;;;;;5088595;28;20574;-59
2023/10/22 02:25:08;;;;;;;2.77;2.50;;;12.10;99.90;;;;;;5085148;28;20657;-59
2023/10/22 02:27:36;;;;;;;4.87;2.60;;;12.10;99.90;;;;;;5083159;28;20228;-59
2023/10/22 02:30:07;;;;;;;5.23;2.40;;;12.10;99.90;;;;;;5082879;28;20258;-59
2023/10/22 02:32:36;;;;;;;5.60;2.50;;;12.10;99.90;;;;;;5086902;28;20307;-59
2023/10/22 02:35:05;;;;;;;6.23;2.67;;;12.10;99.90;;;;;;5084045;28;20223;-60
2023/10/22 02:37:33;;;;;;;4.73;2.43;;;12.10;99.90;;;;;;5083674;28;20690;-59
2023/10/22 02:40:01;;;;;;;4.20;3.03;;;12.10;99.90;;;;;;5082711;28;20192;-59
2023/10/22 02:42:30;;;;;;;2.40;2.27;;;12.10;99.90;;;;;;5087844;28;20222;-59
2023/10/22 02:44:58;;;;;;;4.83;2.50;;;12.10;99.90;;;;;;5086569;28;20311;-59
2023/10/22 02:47:28;;;;;;;5.53;2.43;;;12.00;99.90;;;;;;5086130;28;20242;-59
2023/10/22 02:49:56;;;;;;;3.13;2.03;;;12.00;99.90;;;;;;5086195;28;20319;-59
2023/10/22 02:52:24;;;;;;;3.77;2.50;;;12.00;99.90;;;;;;5081109;28;20195;-59
2023/10/22 02:54:53;;;;;;;6.43;2.30;;;11.90;99.90;;;;;;5087697;28;20196;-60
2023/10/22 02:57:21;;;;;;;4.90;2.43;;;11.90;99.90;;;;;;5083759;28;20372;-60
2023/10/22 02:59:50;;;;;;;4.20;2.40;;;11.90;99.90;;;;;;5083235;28;20577;-60
2023/10/22 03:02:19;;;;;;;6.70;2.93;;;11.90;99.90;;;;;;5087262;28;20215;-60
2023/10/22 03:04:50;;;;;;;5.73;2.47;;;11.80;99.90;;;;;;5082601;28;20253;-60
2023/10/22 03:07:18;;;;;;;3.87;2.07;;;11.80;99.90;;;;;;5084512;28;20281;-60
2023/10/22 03:09:46;;;;;;;3.60;2.37;;;11.70;99.90;;;;;;5080614;28;20223;-60
2023/10/22 03:12:14;;;;;;;4.13;1.90;;;11.60;99.90;;;;;;5085550;28;20593;-59
2023/10/22 03:14:43;;;;;;;4.57;2.10;;;11.60;99.90;;;;;;5082513;28;20234;-60
2023/10/22 03:17:12;;;;;;;3.47;2.20;;;11.60;99.90;;;;;;5083012;28;20257;-60
2023/10/22 03:19:42;;;;;;;2.63;2.13;;;11.60;99.90;;;;;;5086620;28;20640;-59
2023/10/22 03:22:13;;;;;;;2.77;2.53;;;11.60;99.90;;;;;;5068893;28;20203;-60
2023/10/22 03:24:41;;;;;;;7.07;2.47;;;11.60;99.90;;;;;;5085617;28;20219;-60
2023/10/22 03:27:10;;;;;;;2.30;2.10;;;11.60;99.90;;;;;;5085223;28;20234;-60
2023/10/22 03:29:39;;;;;;;6.90;2.00;;;11.50;99.90;;;;;;5086786;28;20569;-61
2023/10/22 03:32:09;;;;;;;6.13;2.10;;;11.50;99.90;;;;;;5084581;28;20223;-61
2023/10/22 03:34:38;;;;;;;5.20;2.20;;;11.50;99.90;;;;;;5081628;28;20271;-59
2023/10/22 03:37:08;;;;;;;3.43;2.10;;;11.60;99.90;;;;;;5080558;28;20382;-60
2023/10/22 03:39:38;;;;;;;6.77;2.07;;;11.60;99.90;;;;;;5080387;28;20211;-60
2023/10/22 03:42:06;;;;;;;2.77;2.20;;;11.60;99.90;;;;;;5080909;28;20216;-60
2023/10/22 03:44:35;;;;;;;2.70;2.20;;;11.60;99.90;;;;;;5067101;28;20231;-61
2023/10/22 03:47:04;;;;;;;2.10;1.90;;;11.60;99.90;;;;;;5086576;28;20728;-60
2023/10/22 03:49:32;;;;;;;4.43;2.20;;;11.60;99.90;;;;;;5081600;28;20208;-60
2023/10/22 03:52:00;;;;;;;4.67;1.87;;;11.70;99.90;;;;;;5086578;28;20204;-60
2023/10/22 03:54:29;;;;;;;3.90;2.13;;;11.70;99.90;;;;;;5065570;28;20219;-60
2023/10/22 03:56:59;;;;;;;5.13;2.30;;;11.70;99.90;;;;;;5065110;28;20215;-60
2023/10/22 03:59:27;;;;;;;3.80;1.93;;;11.70;99.90;;;;;;5083211;28;20270;-60
2023/10/22 04:01:56;;;;;;;5.00;2.10;;;11.70;99.90;;;;;;5083661;28;20239;-59
2023/10/22 04:04:24;;;;;;;3.97;2.23;;;11.70;99.90;;;;;;5080852;28;20628;-59
2023/10/22 04:06:52;;;;;;;3.53;2.17;;;11.70;99.90;;;;;;5084056;28;20183;-60
2023/10/22 04:09:20;;;;;;;9.00;2.87;;;11.80;99.90;;;;;;5081753;28;20250;-60
2023/10/22 04:11:48;;;;;;;5.23;2.30;;;11.80;99.90;;;;;;5064174;28;20215;-60
2023/10/22 04:14:18;;;;;;;4.73;2.13;;;11.80;99.90;;;;;;5082381;28;20227;-60
2023/10/22 04:16:46;;;;;;;6.93;2.20;;;11.80;99.90;;;;;;5083258;28;20224;-59
2023/10/22 04:19:14;;;;;;;3.03;1.93;;;11.90;99.90;;;;;;5082420;28;20190;-60
2023/10/22 04:21:42;;;;;;;2.40;2.00;;;11.90;99.90;;;;;;5082257;28;20216;-60
2023/10/22 04:24:11;;;;;;;4.93;2.30;;;11.90;99.90;;;;;;5082570;28;20254;-60
2023/10/22 04:26:39;;;;;;;3.67;2.20;;;11.90;99.90;;;;;;5088019;28;20222;-60
2023/10/22 04:29:07;;;;;;;4.50;1.90;;;11.80;99.90;;;;;;5080156;28;20223;-60
2023/10/22 04:31:37;;;;;;;4.40;2.00;;;11.80;99.90;;;;;;5084672;28;20211;-59
2023/10/22 04:34:05;;;;;;;5.40;2.37;;;11.80;99.90;;;;;;5088191;28;20553;-60
2023/10/22 04:36:33;;;;;;;4.70;2.03;;;11.80;99.90;;;;;;5084333;28;20215;-60
2023/10/22 04:39:01;;;;;;;1.90;1.70;;;11.90;99.90;;;;;;5081732;28;20215;-60
2023/10/22 04:41:31;;;;;;;4.20;1.90;;;11.90;99.90;;;;;;5084420;28;20212;-60
2023/10/22 04:43:59;;;;;;;3.33;1.83;;;11.90;99.90;;;;;;5080492;28;20797;-60
2023/10/22 04:46:27;;;;;;;4.07;2.00;;;11.90;99.90;;;;;;5083624;28;20184;-58
2023/10/22 04:48:56;;;;;;;3.90;1.90;;;11.90;99.90;;;;;;5084306;28;20199;-60
2023/10/22 04:51:25;;;;;;;7.43;1.70;;;11.90;99.90;;;;;;5081682;28;20226;-60
2023/10/22 04:53:53;;;;;;;2.20;2.00;;;11.90;99.90;;;;;;5081624;28;20220;-60
2023/10/22 04:56:21;;;;;;;4.60;1.90;;;11.90;99.90;;;;;;5082887;28;20600;-59
2023/10/22 04:58:49;;;;;;;3.57;2.20;;;11.80;99.90;;;;;;5081737;28;20228;-60
2023/10/22 05:01:18;;;;;;;2.90;2.20;;;11.80;99.90;;;;;;5076574;28;20228;-60
2023/10/22 05:03:46;;;;;;;2.43;2.17;;;11.80;99.90;;;;;;5085631;28;20276;-60
2023/10/22 05:06:16;;;;;;;2.53;2.13;;;11.80;99.90;;;;;;5079430;28;20632;-60
2023/10/22 05:08:44;;;;;;;3.27;2.07;;;11.80;99.90;;;;;;5084875;28;20280;-60
2023/10/22 05:11:17;;;;;;;5.30;2.17;;;11.80;99.90;;;;;;5079589;28;20254;-60
2023/10/22 05:13:45;;;;;;;2.50;2.13;;;11.80;99.90;;;;;;5083551;28;20215;-59
2023/10/22 05:16:14;;;;;;;4.07;2.20;;;11.80;99.90;;;;;;5084506;28;20281;-60
2023/10/22 05:18:43;;;;;;;3.83;2.10;;;11.80;99.90;;;;;;5083056;28;20262;-60
2023/10/22 05:21:11;;;;;;;3.73;2.13;;;11.80;99.90;;;;;;5080466;28;20240;-60
2023/10/22 05:23:41;;;;;;;2.80;2.40;;;11.80;99.90;;;;;;5082791;28;20215;-60
2023/10/22 05:26:11;;;;;;;8.83;1.97;;;11.80;99.90;;;;;;5064901;28;20585;-60
2023/10/22 05:28:40;;;;;;;4.53;1.90;;;11.80;99.90;;;;;;5086965;28;20222;-60
2023/10/22 05:31:15;;;;;;;5.00;1.93;;;11.80;99.90;;;;;;5083374;28;20272;-60
2023/10/22 05:33:44;;;;;;;2.00;1.90;;;11.80;99.90;;;;;;5083379;28;20225;-60
2023/10/22 05:36:16;;;;;;;7.17;2.20;;;11.80;99.90;;;;;;5081175;28;20701;-60
2023/10/22 05:38:46;;;;;;;6.57;2.30;;;11.80;99.90;;;;;;5085451;28;20641;-60
2023/10/22 05:41:20;;;;;;;6.17;2.07;;;11.80;99.90;;;;;;5060663;28;20218;-60
2023/10/22 05:43:48;;;;;;;5.57;1.90;;;11.80;99.90;;;;;;5068955;28;20613;-60
2023/10/22 05:46:16;;;;;;;6.73;2.23;;;11.80;99.90;;;;;;5065183;28;20205;-60
2023/10/22 05:48:45;;;;;;;2.60;2.40;;;11.80;99.90;;;;;;5065579;28;20234;-60
2023/10/22 05:51:13;;;;;;;2.33;2.13;;;11.80;99.90;;;;;;5066377;28;20220;-60
2023/10/22 05:53:46;;;;;;;2.17;2.03;;;11.80;99.90;;;;;;5068864;28;20307;-60
2023/10/22 05:56:15;;;;;;;2.63;2.40;;;11.80;99.90;;;;;;5049967;28;20245;-60
2023/10/22 05:58:44;;;;;;;6.63;2.47;;;11.80;99.90;;;;;;5066666;28;20220;-60
2023/10/22 06:01:12;;;;;;;3.90;2.07;;;11.80;99.90;;;;;;5062349;28;20228;-60
2023/10/22 06:03:40;;;;;;;6.27;2.20;;;11.80;99.90;;;;;;5059777;28;20259;-60
2023/10/22 06:06:11;;;;;;;4.33;2.10;;;11.80;99.90;;;;;;5063143;28;20223;-60
2023/10/22 06:08:42;;;;;;;3.80;2.40;;;11.80;99.90;;;;;;5064222;28;20617;-60
2023/10/22 06:11:11;;;;;;;2.83;2.20;;;11.80;99.90;;;;;;5064560;28;20228;-60
2023/10/22 06:13:39;;;;;;;3.47;2.20;;;11.80;99.90;;;;;;5064785;28;20710;-60
2023/10/22 06:16:09;;;;;;;6.03;2.50;;;11.70;99.90;;;;;;5083483;28;20188;-61
2023/10/22 06:18:38;;;;;;;2.37;2.23;;;11.70;99.90;;;;;;5070880;28;20220;-60
2023/10/22 06:21:13;;;;;;;8.63;2.60;;;11.70;99.90;;;;;;5085597;28;20224;-60
2023/10/22 06:23:42;;;;;;;3.13;2.40;;;11.70;99.90;;;;;;5081593;28;20226;-60
2023/10/22 06:26:12;;;;;;;4.27;2.60;;;11.70;99.90;;;;;;5085723;28;20751;-60
2023/10/22 06:28:41;;;;;;;3.83;2.30;;;11.70;99.90;;;;;;5082195;28;20233;-60
2023/10/22 06:31:10;;;;;;;5.57;2.60;;;11.70;99.90;;;;;;5081361;28;20696;-60
2023/10/22 06:33:40;;;;;;;3.03;2.40;;;11.70;99.90;;;;;;5082302;28;20560;-60
2023/10/22 06:36:14;;;;;;;2.67;2.30;;;11.70;99.90;;;;;;5082202;28;20215;-60
2023/10/22 06:38:43;;;;;;;3.00;2.60;;;11.70;99.90;;;;;;5084022;28;20796;-60
2023/10/22 06:41:17;;;;;;;3.27;2.60;;;11.80;99.90;;;;;;5083858;28;20705;-60
2023/10/22 06:43:45;;;;;;;4.27;2.50;;;11.80;99.90;;;;;;5079626;28;20609;-60
2023/10/22 06:46:14;;;;;;;2.57;2.40;;;11.80;99.90;;;;;;5086771;28;20260;-60
2023/10/22 06:48:43;;;;;;;4.73;2.60;;;11.80;99.90;;;;;;5082710;28;20221;-60
2023/10/22 06:51:12;;;;;;;2.87;2.63;;;11.80;99.90;;;;;;5081498;28;20308;-60
2023/10/22 06:53:41;;;;;;;4.53;2.80;;;11.90;99.90;;;;;;5068224;28;20226;-60
2023/10/22 06:56:09;;;;;;;5.63;3.77;;;11.90;99.90;;;;;;5083679;28;20266;-60
2023/10/22 06:58:39;;;;;;;2.83;2.40;;;11.90;99.90;;;;;;5078338;28;20215;-60
2023/10/22 07:01:10;;;;;;;6.10;2.97;;;12.00;99.90;;;;;;5081510;28;20234;-60
2023/10/22 07:03:41;;;;;;;4.60;2.70;;;12.00;99.90;;;;;;5075393;28;20666;-60
2023/10/22 07:06:09;;;;;;;3.07;2.87;;;12.10;99.90;;;;;;5079221;28;20226;-60
2023/10/22 07:08:38;;;;;;;5.70;3.43;;;12.10;99.90;;;;;;5079418;28;20216;-60
2023/10/22 07:11:06;;;;;;;6.67;3.30;;;12.10;99.90;;;;;;5078687;28;20224;-60
2023/10/22 07:13:34;;;;;;;3.20;2.90;;;12.20;99.90;;;;;;5080619;28;20196;-60
2023/10/22 07:16:04;;;;;;;5.67;3.07;;;12.20;99.90;;;;;;5080872;28;20197;-60
2023/10/22 07:18:33;;;;;;;5.20;3.50;;;12.30;99.90;;;;;;5081377;28;20258;-60
2023/10/22 07:21:02;;;;;;;4.97;3.30;;;12.30;99.90;;;;;;5079350;28;20581;-60
2023/10/22 07:23:31;;;;;;;3.80;3.50;;;12.40;99.90;;;;;;5082223;28;20292;-60
2023/10/22 07:26:00;;;;;;;4.20;3.67;;;12.40;99.90;;;;;;5081722;28;20261;-60
2023/10/22 07:28:28;;;;;;;6.53;4.20;;;12.40;99.90;;;;;;5083311;28;20206;-60
2023/10/22 07:30:56;;;;;;;4.03;3.63;;;12.40;99.90;;;;;;5062407;28;20213;-60
2023/10/22 07:33:27;;;;;;;4.27;3.87;;;12.50;99.90;;;;;;5067841;28;20216;-60
2023/10/22 07:35:56;;;;;;;7.47;4.53;;;12.60;99.90;;;;;;5065820;28;20228;-60
2023/10/22 07:38:29;;;;;;;4.60;3.70;;;12.70;99.90;;;;;;5064644;28;20291;-60
2023/10/22 07:40:58;;;;;;;5.13;3.40;;;12.70;99.90;;;;;;5042876;28;20228;-60
2023/10/22 07:43:29;;;;;;;3.97;3.67;;;12.70;99.90;;;;;;5058581;28;20184;-60
2023/10/22 07:46:00;;;;;;;5.87;3.73;;;12.80;99.90;;;;;;5064596;28;20196;-61
2023/10/22 07:48:30;;;;;;;5.23;3.90;;;12.90;99.90;;;;;;5062139;28;20570;-60
2023/10/22 07:51:09;;;;;;;5.13;4.20;;;13.00;99.90;;;;;;5062634;28;20215;-61
2023/10/22 07:53:37;;;;;;;6.73;4.60;;;13.00;99.90;;;;;;5063015;28;20227;-60
2023/10/22 07:56:06;;;;;;;6.47;4.40;;;13.10;99.90;;;;;;5064783;28;20230;-60
2023/10/22 07:58:35;;;;;;;6.80;4.50;;;13.20;99.90;;;;;;5063622;28;20215;-60
2023/10/22 08:01:03;;;;;;;8.77;5.20;;;13.30;99.90;;;;;;5061276;28;20219;-60
2023/10/22 08:03:34;;;;;;;7.73;4.97;;;13.40;99.90;;;;;;5062678;28;20714;-60
2023/10/22 08:06:04;;;;;;;8.53;5.53;;;13.40;99.90;;;;;;5057104;28;20217;-60
2023/10/22 08:08:33;;;;;;;7.93;5.27;;;13.40;99.90;;;;;;5063333;28;20212;-60
2023/10/22 08:11:03;;;;;;;7.63;5.53;;;13.40;99.90;;;;;;5061702;28;20248;-61
2023/10/22 08:13:33;;;;;;;6.40;5.77;;;13.50;99.90;;;;;;5080726;28;20665;-60
2023/10/22 08:16:03;;;;;;;7.73;5.73;;;13.50;99.90;;;;;;5082834;28;20651;-60
2023/10/22 08:18:33;;;;;;;11.07;5.40;;;13.50;99.90;;;;;;5076652;28;20220;-60
2023/10/22 08:21:03;;;;;;;10.97;5.93;;;13.50;99.90;;;;;;5074846;28;20220;-60
2023/10/22 08:23:32;;;;;;;8.87;6.00;;;13.60;99.90;;;;;;5086399;28;20278;-60
2023/10/22 08:26:00;;;;;;;8.43;6.20;;;13.60;99.90;;;;;;5081301;28;20308;-60
2023/10/22 08:28:28;;;;;;;7.00;6.13;;;13.60;99.90;;;;;;5068891;28;20632;-59
2023/10/22 08:30:57;;;;;;;8.63;5.60;;;13.60;99.90;;;;;;5080960;28;20250;-60
2023/10/22 08:33:25;;;;;;;7.27;6.30;;;13.60;99.90;;;;;;5081358;28;20211;-60
2023/10/22 08:35:55;;;;;;;6.73;5.97;;;13.70;99.90;;;;;;5080660;28;20224;-61
2023/10/22 08:38:23;;;;;;;7.13;6.33;;;13.60;99.90;;;;;;5079818;28;20239;-60
2023/10/22 08:40:52;;;;;;;12.00;6.57;;;13.60;99.90;;;;;;5082663;28;20219;-60
2023/10/22 08:43:20;;;;;;;7.00;5.97;;;13.60;99.90;;;;;;5083368;28;20191;-60
2023/10/22 08:45:49;;;;;;;9.07;6.40;;;13.60;99.90;;;;;;5079766;28;20227;-60
2023/10/22 08:48:18;;;;;;;13.23;6.23;;;13.70;99.90;;;;;;5047946;28;20231;-60
2023/10/22 08:50:48;;;;;;;7.90;6.33;;;13.70;99.90;;;;;;5063480;28;20217;-60
2023/10/22 08:53:17;;;;;;;8.00;6.03;;;13.90;99.90;;;;;;5074765;28;20401;-60
2023/10/22 08:55:47;;;;;;;7.50;5.67;;;13.90;99.90;;;;;;5059109;28;20241;-60
2023/10/22 08:58:17;;;;;;;9.63;6.47;;;14.00;99.90;;;;;;5064920;28;20221;-60
2023/10/22 09:00:46;;;;;;;11.17;6.13;;;14.00;99.90;;;;;;5064286;28;20590;-60
2023/10/22 09:03:15;;;;;;;8.50;6.03;;;13.90;99.90;;;;;;5023189;28;20221;-60
2023/10/22 09:05:44;;;;;;;10.00;6.43;;;13.80;99.90;;;;;;5027271;28;20236;-60
2023/10/22 09:08:12;;;;;;;7.57;6.40;;;13.70;99.90;;;;;;5028179;28;20235;-61
2023/10/22 09:10:42;;;;;;;9.67;6.67;;;13.60;99.90;;;;;;5029913;28;20200;-60
2023/10/22 09:13:12;;;;;;;7.20;6.20;;;13.60;99.90;;;;;;5042446;28;20210;-60
2023/10/22 09:15:43;;;;;;;8.50;6.40;;;13.60;99.90;;;;;;5040884;28;20750;-60
2023/10/22 09:18:12;;;;;;;8.83;6.20;;;13.60;99.90;;;;;;5039167;28;20343;-60
2023/10/22 09:20:42;;;;;;;12.13;7.40;;;13.60;99.90;;;;;;5042258;28;20221;-60
2023/10/22 09:23:15;;;;;;;11.60;6.80;;;13.60;99.90;;;;;;5043749;28;20874;-60
2023/10/22 09:25:46;;;;;;;13.83;6.70;;;13.60;99.90;;;;;;5043231;28;21319;-59
2023/10/22 09:28:17;;;;;;;13.23;6.87;;;13.60;99.90;;;;;;5042258;28;20200;-60
2023/10/22 09:30:45;;;;;;;7.57;6.30;;;13.60;99.90;;;;;;5041299;28;20229;-61
2023/10/22 09:33:17;;;;;;;11.77;6.70;;;13.50;99.90;;;;;;5035624;28;20217;-60
2023/10/22 09:36:01;;;;;;;9.77;6.73;;;13.50;99.90;;;;;;5033719;28;21261;-60
2023/10/22 09:38:43;;;;;;;9.23;6.53;;;13.50;99.90;;;;;;5039492;28;20316;-61
2023/10/22 09:41:20;;;;;;;11.80;6.77;;;13.50;99.90;;;;;;5039841;28;20268;-60
2023/10/22 09:43:48;;;;;;;7.07;5.97;;;13.50;99.90;;;;;;5034396;28;20248;-60
2023/10/22 09:46:18;;;;;;;5.60;5.20;;;13.50;99.90;;;;;;5028826;28;21023;-61
2023/10/22 09:48:48;;;;;;;5.77;5.17;;;13.50;99.90;;;;;;5039852;28;20221;-60
2023/10/22 09:51:18;;;;;;;5.40;4.90;;;13.50;99.90;;;;;;5042481;28;20217;-60
2023/10/22 09:53:52;;;;;;;5.50;5.10;;;13.60;99.90;;;;;;5046870;28;20236;-60
2023/10/22 09:56:23;;;;;;;4.27;3.87;;;13.70;99.90;;;;;;5040827;28;20278;-60
2023/10/22 09:58:59;;;;;;;4.30;3.90;;;13.80;99.90;;;;;;5052383;28;20236;-60
2023/10/22 10:01:30;;;;;;;4.20;3.87;;;13.90;99.90;;;;;;5058225;28;20270;-59
2023/10/22 10:04:02;;;;;;;7.77;6.20;;;14.00;99.90;;;;;;5083897;28;20296;-60
2023/10/22 10:06:32;;;;;;;3.77;3.57;;;14.10;99.90;;;;;;5078988;28;20254;-60
2023/10/22 10:09:03;;;;;;;4.13;3.70;;;14.20;99.90;;;;;;5084182;28;20648;-60
2023/10/22 10:11:34;;;;;;;3.53;3.30;;;14.30;99.90;;;;;;5085004;28;20318;-60
2023/10/22 10:14:12;;;;;;;3.17;3.00;;;14.40;99.90;;;;;;5080047;28;20678;-60
2023/10/22 10:16:43;;;;;;;3.30;3.20;;;14.50;99.90;;;;;;5080917;28;20198;-60
2023/10/22 10:19:20;;;;;;;3.43;3.30;;;14.40;99.90;;;;;;5078380;28;20188;-60
2023/10/22 10:21:50;;;;;;;3.53;3.43;;;14.40;99.90;;;;;;5064991;28;20271;-61
2023/10/22 10:24:25;;;;;;;3.93;3.73;;;14.20;99.90;;;;;;5068097;28;20685;-60
2023/10/22 10:27:25;;;;;;;4.63;3.70;;;14.10;99.90;;;;;;5067565;28;20217;-59
2023/10/22 10:30:17;;;;;;;3.77;3.47;;;14.20;99.90;;;;;;5080925;28;20271;-60
2023/10/22 10:32:46;;;;;;;3.77;3.40;;;14.20;99.90;;;;;;5077762;28;20750;-60
2023/10/22 10:35:44;;;;;;;4.17;3.87;;;14.20;99.90;;;;;;5065428;28;20212;-60
2023/10/22 10:38:23;;;;;;;4.20;4.00;;;14.20;99.90;;;;;;5064551;28;20231;-60
2023/10/22 10:40:54;;;;;;;3.67;3.50;;;14.40;99.90;;;;;;5062886;28;20217;-60
2023/10/22 10:43:56;;;;;;;3.53;3.30;;;14.60;99.90;;;;;;5060381;28;20188;-59
2023/10/22 10:46:27;;;;;;;4.13;3.80;;;14.70;99.90;;;;;;5060791;28;20202;-60
2023/10/22 10:48:55;;;;;;;4.00;3.70;;;14.90;99.90;;;;;;5068074;28;20268;-60
2023/10/22 10:51:25;;;;;;;4.33;4.07;;;15.10;99.90;;;;;;5065876;28;20312;-60
2023/10/22 10:54:17;;;;;;;4.37;4.03;;;15.20;99.90;;;;;;5065703;28;20224;-61
2023/10/22 10:56:50;;;;;;;5.67;4.10;;;15.30;99.90;;;;;;5066207;28;20231;-60
2023/10/22 10:59:35;;;;;;;4.90;4.20;;;15.40;99.90;;;;;;5061985;28;20241;-60
2023/10/22 11:02:08;;;;;;;4.97;4.13;;;15.40;99.90;;;;;;5057522;28;20229;-60
2023/10/22 11:04:38;;;;;;;6.87;4.00;;;15.40;99.90;;;;;;5066034;28;20237;-60
2023/10/22 11:07:07;;;;;;;4.20;3.90;;;15.30;99.90;;;;;;5067604;28;21325;-60
2023/10/22 11:09:39;;;;;;;4.20;3.87;;;15.30;99.90;;;;;;5082936;28;20244;-60
2023/10/22 11:12:09;;;;;;;4.10;3.80;;;15.30;99.90;;;;;;5083903;28;20234;-60
2023/10/22 11:14:38;;;;;;;4.90;4.40;;;15.30;99.90;;;;;;5086045;28;20218;-60
2023/10/22 11:17:08;;;;;;;4.07;3.73;;;15.20;99.90;;;;;;5081992;28;20228;-60
2023/10/22 11:19:37;;;;;;;3.60;3.30;;;15.30;99.90;;;;;;5081022;28;20199;-60
2023/10/22 11:22:09;;;;;;;5.00;3.57;;;15.30;99.90;;;;;;5077499;28;20230;-61
2023/10/22 11:24:37;;;;;;;3.50;3.20;;;15.40;99.90;;;;;;5077327;28;20223;-60
2023/10/22 11:27:06;;;;;;;2.83;2.53;;;15.60;99.90;;;;;;5079015;28;20306;-60
2023/10/22 11:29:41;;;;;;;2.70;2.60;;;15.80;99.90;;;;;;5062360;28;20269;-61
2023/10/22 11:32:14;;;;;;;2.43;2.27;;;15.90;99.90;;;;;;5078529;28;20225;-60
2023/10/22 11:34:49;;;;;;;3.03;2.40;;;16.00;99.90;;;;;;5075531;28;20246;-59
2023/10/22 11:37:28;;;;;;;2.57;2.37;;;16.00;94.80;;;;;;5077767;28;20202;-60
2023/10/22 11:39:57;;;;;;;2.60;2.40;;;16.10;98.00;;;;;;5082385;28;20207;-60
2023/10/22 11:42:32;;;;;;;2.40;2.30;;;16.30;86.20;;;;;;5080166;28;20920;-60
2023/10/22 11:45:00;;;;;;;2.13;2.10;;;16.60;96.50;;;;;;5066610;28;20247;-61
2023/10/22 11:47:32;;;;;;;2.27;2.17;;;16.60;78.40;;;;;;5063553;28;20723;-60
2023/10/22 11:50:02;;;;;;;2.90;2.70;;;16.60;76.30;;;;;;5057576;28;20722;-60
2023/10/22 11:52:50;;;;;;;2.37;2.27;;;16.80;83.90;;;;;;5041245;28;20207;-60
2023/10/22 11:55:19;;;;;;;2.73;2.40;;;17.00;70.00;;;;;;5056349;28;20207;-61
2023/10/22 11:58:03;;;;;;;2.60;2.40;;;17.00;72.00;;;;;;5078706;28;20310;-60
2023/10/22 12:00:31;;;;;;;2.10;2.00;;;17.00;75.40;;;;;;5081276;28;20655;-60
2023/10/22 12:03:01;;;;;;;2.60;2.33;;;16.80;63.50;;;;;;5081493;28;20680;-61
2023/10/22 12:05:30;;;;;;;2.10;2.10;;;16.70;73.80;;;;;;5081779;28;20218;-60
2023/10/22 12:07:58;;;;;;;4.53;2.30;;;16.70;61.60;;;;;;5079836;28;20221;-60
2023/10/22 12:10:27;;;;;;;2.23;2.13;;;16.70;56.40;;;;;;5079985;28;20282;-60
2023/10/22 12:12:57;;;;;;;3.10;2.50;;;16.50;67.50;;;;;;5063541;28;20294;-60
2023/10/22 12:15:26;;;;;;;3.77;2.20;;;16.50;94.00;;;;;;5066400;28;20223;-60
2023/10/22 12:17:54;;;;;;;4.30;2.27;;;16.80;95.10;;;;;;5079469;28;20273;-60
2023/10/22 12:20:24;;;;;;;4.00;2.10;;;16.90;85.70;;;;;;5073027;28;20301;-62
2023/10/22 12:22:53;;;;;;;2.00;1.90;;;17.00;62.30;;;;;;5078241;28;20227;-61
2023/10/22 12:25:21;;;;;;;4.53;1.80;;;17.00;55.00;;;;;;5081285;28;20234;-61
2023/10/22 12:27:50;;;;;;;2.07;1.70;;;16.90;52.40;;;;;;5084861;28;20224;-61
2023/10/22 12:30:18;;;;;;;2.00;1.80;;;16.70;66.70;;;;;;5082551;28;20331;-60
2023/10/22 12:32:47;;;;;;;4.47;1.73;;;16.80;73.30;;;;;;5080401;28;20224;-61
2023/10/22 12:35:16;;;;;;;1.43;1.43;;;16.80;48.80;;;;;;5078608;28;20228;-60
2023/10/22 12:37:45;;;;;;;1.90;1.80;;;16.90;74.60;;;;;;5077044;28;20223;-60
2023/10/22 12:40:14;;;;;;;2.90;1.50;;;17.20;56.40;;;;;;5078874;28;20199;-60
2023/10/22 12:42:42;;;;;;;1.47;1.37;;;17.50;52.70;;;;;;5080101;28;20222;-60
2023/10/22 12:45:11;;;;;;;2.13;1.40;;;17.60;31.50;;;;;;5075144;28;20249;-60
2023/10/22 12:47:40;;;;;;;1.20;1.20;;;17.50;45.60;;;;;;5077865;28;20625;-60
2023/10/22 12:50:09;;;;;;;1.87;1.00;;;17.50;16.30;;;;;;5075512;28;20219;-61
2023/10/22 12:52:37;;;;;;;1.20;1.17;;;17.70;26.20;;;;;;5077256;28;20274;-59
2023/10/22 12:55:08;;;;;;;1.77;1.30;;;17.90;14.50;;;;;;5081106;28;20550;-61
2023/10/22 12:57:36;;;;;;;2.30;1.33;;;18.00;18.20;;;;;;5078780;28;20231;-60
2023/10/22 13:00:06;;;;;;;2.27;1.33;;;17.90;14.50;;;;;;5080141;28;20311;-60